Aérodrome :
LOGIN :

S'inscrire | Disclaimer

   EN    FR    IT 

 










Légende :    VFR   VFR Marginal   IFR   IFR Intensif   IFR Très Intensif
Visi : 
Plafond : 
>= 8 km
>= 3000ft
5 à 8 km
1000 à 3000 ft
1500m à 5 km
500 à 1000 ft
800 à 1500m
200 à 500 ft
< 800m
< 200 ft
Symboles :   Orages  Brouillard  Fortes neiges  Fortes précipitations  Vent > 20 kt
SIGMETs :   Divers  Orages  Givrage  Turbulence  Onde Orograph.  Cendres Volcan.







- Altitude de l'aérodrome : 102 ft
- Code IATA : EXT
- Voir les cartes d'approche


EGTE - Exeter

DERNIER METAR :
  • 242020Z 12005KT CAVOK 17/11 Q1025

METARs EXPIRÉS :
  • 241950Z 17005KT CAVOK 17/12 Q1024
  • 241920Z 20006KT CAVOK 18/12 Q1024
  • 241850Z 21007KT CAVOK 18/12 Q1024
  • 241820Z 21008KT CAVOK 19/13 Q1024
  • 241750Z 22009KT CAVOK 19/13 Q1024

TAF TAF EGTE
Valide du 24 à 21h jusqu'au 25 à 03h UTC


241957Z 2421/2503 17004KT CAVOK
BECMG 2423/2502 7000
PROB30 2501/2503 3000 BR MIFG
Pas de NOTAMs connus pour ce terrain.



MET'MAP, la Météo Aéronautique d'un coup d'oeil ! - Copyright ORBIFLY Décembre 2007 - Disclaimer

ORBIFLY MET'MAP TEAM :

Programmation & Développement : Alexandra Zaïnal
Conception & Développement : Baudouin d'Aumeries
Co-Programmation & Développement : Marc-Olivier Méhu
Soutien technique & logistique : Manuel Goepfert

Contact : metmap@orbifly.com




SOURCES & CREDITS :

   NOAA